Time;durP1;ratioP1;P1;durP2;ratioP2;P2;SDS_P1;SDS_P2;PMS_P1;PMS_P2;Temp;Humidity;BMP_temperature;BMP_pressure;BME280_temperature;BME280_humidity;BME280_pressure;Samples;Min_cycle;Max_cycle;Signal;HPM_P1;HPM_P2
2023/01/06 00:00:22;;;;;;;6.70;1.20;;;;;;;;;;103464;1301;22469;-81
2023/01/06 00:03:09;;;;;;;7.20;1.30;;;;;;;;;;103309;1310;24231;-85
2023/01/06 00:05:36;;;;;;;8.30;1.10;;;;;;;;;;103323;1303;23725;-84
2023/01/06 00:08:03;;;;;;;7.10;1.30;;;;;;;;;;103008;1313;22453;-81
2023/01/06 00:10:29;;;;;;;4.60;0.90;;;;;;;;;;103091;1310;23054;-81
2023/01/06 00:12:56;;;;;;;5.50;1.10;;;;;;;;;;103206;1298;22451;-82
2023/01/06 00:15:23;;;;;;;8.60;1.20;;;;;;;;;;103214;1310;24314;-86
2023/01/06 00:17:49;;;;;;;4.40;0.90;;;;;;;;;;103192;1310;22560;-83
2023/01/06 00:20:16;;;;;;;6.20;1.00;;;;;;;;;;103337;1302;22454;-79
2023/01/06 00:22:43;;;;;;;6.60;1.10;;;;;;;;;;103332;1299;24380;-80
2023/01/06 00:25:09;;;;;;;4.60;0.90;;;;;;;;;;103305;1304;24228;-80
2023/01/06 00:27:37;;;;;;;5.60;0.90;;;;;;;;;;103007;1313;24309;-80
2023/01/06 00:30:04;;;;;;;6.00;1.10;;;;;;;;;;103560;1298;25466;-82
2023/01/06 00:32:31;;;;;;;6.20;1.00;;;;;;;;;;103680;1306;22451;-79
2023/01/06 00:34:58;;;;;;;3.60;0.80;;;;;;;;;;103553;1307;24209;-81
2023/01/06 00:37:26;;;;;;;3.90;0.80;;;;;;;;;;103515;1307;24282;-79
2023/01/06 00:39:53;;;;;;;7.30;1.10;;;;;;;;;;103731;1304;25323;-82
2023/01/06 00:42:21;;;;;;;6.00;1.20;;;;;;;;;;103710;1289;24233;-82
2023/01/06 00:44:48;;;;;;;4.10;0.90;;;;;;;;;;103640;1305;22525;-90
2023/01/06 00:47:15;;;;;;;6.90;1.10;;;;;;;;;;103492;1306;22467;-80
2023/01/06 00:49:42;;;;;;;5.40;0.90;;;;;;;;;;103504;1307;22462;-85
2023/01/06 00:52:09;;;;;;;6.20;1.00;;;;;;;;;;103563;1307;24219;-82
2023/01/06 00:54:36;;;;;;;9.40;1.10;;;;;;;;;;103509;1304;25196;-81
2023/01/06 00:57:04;;;;;;;8.20;1.50;;;;;;;;;;103561;1304;22530;-82
2023/01/06 00:59:31;;;;;;;4.70;0.80;;;;;;;;;;103666;1304;22461;-85
2023/01/06 01:01:58;;;;;;;4.90;1.20;;;;;;;;;;103669;1299;24299;-82
2023/01/06 01:04:25;;;;;;;6.30;0.90;;;;;;;;;;103697;1304;22541;-81
2023/01/06 01:06:52;;;;;;;7.40;1.20;;;;;;;;;;103689;1290;25284;-80
2023/01/06 01:09:24;;;;;;;5.50;0.90;;;;;;;;;;103416;1307;25291;-79
2023/01/06 01:12:09;;;;;;;6.90;1.20;;;;;;;;;;103504;1305;22474;-82
2023/01/06 01:14:56;;;;;;;4.70;1.00;;;;;;;;;;103508;1306;24333;-79
2023/01/06 01:17:24;;;;;;;5.30;1.10;;;;;;;;;;103506;1304;23061;-84
2023/01/06 01:19:54;;;;;;;7.00;1.40;;;;;;;;;;103587;1304;22467;-82
2023/01/06 01:22:22;;;;;;;6.40;1.20;;;;;;;;;;103526;1307;22468;-86
2023/01/06 01:24:48;;;;;;;5.40;1.00;;;;;;;;;;103519;1304;25197;-81
2023/01/06 01:27:15;;;;;;;5.60;1.40;;;;;;;;;;103474;1307;22463;-79
2023/01/06 01:29:42;;;;;;;6.40;1.30;;;;;;;;;;103515;1305;22461;-85
2023/01/06 01:32:09;;;;;;;6.00;1.40;;;;;;;;;;103574;1307;22441;-83
2023/01/06 01:34:37;;;;;;;4.50;1.10;;;;;;;;;;103517;1302;25274;-79
2023/01/06 01:37:03;;;;;;;7.60;1.30;;;;;;;;;;103480;1307;24465;-84
2023/01/06 01:39:31;;;;;;;5.00;1.00;;;;;;;;;;103792;1304;22463;-82
2023/01/06 01:41:58;;;;;;;4.30;1.00;;;;;;;;;;103782;1304;22714;-80
2023/01/06 01:44:43;;;;;;;7.20;1.30;;;;;;;;;;103881;1304;22471;-83
2023/01/06 01:47:12;;;;;;;7.10;2.40;;;;;;;;;;103535;1294;24032;-80
2023/01/06 01:49:40;;;;;;;5.20;1.30;;;;;;;;;;103479;1305;22465;-82
2023/01/06 01:52:08;;;;;;;5.90;1.50;;;;;;;;;;103514;1306;22450;-80
2023/01/06 01:54:35;;;;;;;4.70;1.20;;;;;;;;;;103501;1306;22552;-82
2023/01/06 01:57:08;;;;;;;7.40;1.30;;;;;;;;;;103739;1304;22441;-83
2023/01/06 01:59:37;;;;;;;5.50;1.50;;;;;;;;;;103565;1307;22455;-79
2023/01/06 02:02:04;;;;;;;7.20;1.40;;;;;;;;;;103459;1307;25280;-80
2023/01/06 02:04:33;;;;;;;7.40;1.70;;;;;;;;;;103669;1289;22443;-82
2023/01/06 02:07:01;;;;;;;8.50;1.60;;;;;;;;;;103538;1304;24382;-79
2023/01/06 02:09:31;;;;;;;7.00;1.60;;;;;;;;;;103482;1304;22471;-79
2023/01/06 02:11:58;;;;;;;7.30;1.80;;;;;;;;;;103477;1307;22469;-81
2023/01/06 02:14:27;;;;;;;6.90;1.80;;;;;;;;;;103704;1307;22705;-81
2023/01/06 02:17:12;;;;;;;7.80;1.80;;;;;;;;;;103524;1297;22462;-84
2023/01/06 02:19:51;;;;;;;6.50;1.70;;;;;;;;;;103783;1299;22455;-86
2023/01/06 02:22:33;;;;;;;6.60;1.70;;;;;;;;;;103495;1307;25159;-79
2023/01/06 02:25:06;;;;;;;9.50;1.70;;;;;;;;;;103773;1296;24308;-81
2023/01/06 02:27:43;;;;;;;7.70;1.70;;;;;;;;;;103701;1304;24079;-83
2023/01/06 02:30:16;;;;;;;8.10;2.20;;;;;;;;;;103605;1307;25479;-80
2023/01/06 02:32:43;;;;;;;8.70;2.60;;;;;;;;;;103465;1309;22934;-84
2023/01/06 02:35:22;;;;;;;9.20;2.10;;;;;;;;;;103587;1307;24393;-79
2023/01/06 02:37:55;;;;;;;8.50;2.20;;;;;;;;;;103576;1307;24265;-81
2023/01/06 02:40:22;;;;;;;6.90;2.10;;;;;;;;;;103617;1306;22538;-80
2023/01/06 02:43:08;;;;;;;12.10;2.80;;;;;;;;;;103514;1304;25244;-79
2023/01/06 02:45:41;;;;;;;9.40;3.70;;;;;;;;;;103679;1304;24390;-81
2023/01/06 02:48:11;;;;;;;11.40;3.70;;;;;;;;;;103681;1304;24311;-80
2023/01/06 02:50:57;;;;;;;10.00;3.40;;;;;;;;;;103459;1307;25354;-79
2023/01/06 02:53:30;;;;;;;11.80;4.00;;;;;;;;;;103609;1307;23064;-82
2023/01/06 02:55:57;;;;;;;13.00;4.40;;;;;;;;;;103376;1307;22506;-81
2023/01/06 02:58:36;;;;;;;21.60;4.70;;;;;;;;;;103516;1307;25312;-83
2023/01/06 03:01:10;;;;;;;9.10;3.50;;;;;;;;;;103587;1289;22464;-80
2023/01/06 03:03:40;;;;;;;12.50;3.20;;;;;;;;;;103470;1307;25325;-79
2023/01/06 03:06:10;;;;;;;8.10;3.10;;;;;;;;;;103546;1304;22481;-83
2023/01/06 03:08:37;;;;;;;8.90;2.50;;;;;;;;;;103525;1305;22455;-80
2023/01/06 03:11:04;;;;;;;7.50;1.90;;;;;;;;;;103492;1307;23913;-81
2023/01/06 03:13:43;;;;;;;6.80;2.40;;;;;;;;;;103477;1306;22630;-78
2023/01/06 03:16:12;;;;;;;8.30;2.00;;;;;;;;;;103510;1303;22454;-83
2023/01/06 03:18:41;;;;;;;6.10;1.70;;;;;;;;;;103451;1307;22468;-85
2023/01/06 03:21:10;;;;;;;6.70;1.60;;;;;;;;;;103570;1302;23048;-80
2023/01/06 03:23:38;;;;;;;6.90;2.00;;;;;;;;;;103502;1302;22817;-81
2023/01/06 03:26:05;;;;;;;7.20;1.90;;;;;;;;;;103610;1307;22457;-79
2023/01/06 03:28:33;;;;;;;10.40;1.90;;;;;;;;;;103448;1307;22733;-83
2023/01/06 03:31:03;;;;;;;8.80;1.80;;;;;;;;;;103587;1305;22456;-82
2023/01/06 03:33:38;;;;;;;6.10;1.70;;;;;;;;;;103591;1307;22933;-84
2023/01/06 03:36:11;;;;;;;6.90;1.70;;;;;;;;;;103484;1307;23538;-85
2023/01/06 03:38:48;;;;;;;6.40;1.10;;;;;;;;;;103507;1307;22405;-79
2023/01/06 03:41:14;;;;;;;3.40;0.70;;;;;;;;;;103520;1304;22445;-84
2023/01/06 03:44:00;;;;;;;6.40;1.10;;;;;;;;;;103526;1307;23882;-83
2023/01/06 03:46:37;;;;;;;5.00;0.80;;;;;;;;;;103722;1307;25537;-80
2023/01/06 03:49:06;;;;;;;7.50;1.40;;;;;;;;;;103499;1302;24522;-80
2023/01/06 03:51:42;;;;;;;5.90;0.80;;;;;;;;;;103533;1307;24237;-84
2023/01/06 03:54:24;;;;;;;5.20;0.90;;;;;;;;;;103490;1307;22603;-82
2023/01/06 03:56:55;;;;;;;5.80;0.90;;;;;;;;;;103559;1310;22479;-81
2023/01/06 03:59:25;;;;;;;5.80;0.80;;;;;;;;;;103618;1304;22454;-81
2023/01/06 04:01:52;;;;;;;4.50;0.90;;;;;;;;;;103786;1310;22468;-81
2023/01/06 04:04:20;;;;;;;4.60;0.70;;;;;;;;;;103744;1289;25377;-81
2023/01/06 04:06:47;;;;;;;4.90;0.70;;;;;;;;;;103725;1310;25633;-81
2023/01/06 04:09:14;;;;;;;6.30;1.00;;;;;;;;;;103726;1308;25354;-81
2023/01/06 04:14:28;;;;;;;14.00;2.80;;;;;;;;;;103576;1304;22575;-80
2023/01/06 04:16:54;;;;;;;12.60;3.00;;;;;;;;;;103386;1307;22714;-83
2023/01/06 04:19:23;;;;;;;13.10;2.40;;;;;;;;;;103557;1302;24211;-83
2023/01/06 04:21:49;;;;;;;9.00;2.00;;;;;;;;;;103505;1310;24311;-85
2023/01/06 04:24:17;;;;;;;9.80;2.00;;;;;;;;;;103491;1309;25303;-81
2023/01/06 04:26:43;;;;;;;9.20;1.90;;;;;;;;;;103537;1302;23052;-85
2023/01/06 04:29:10;;;;;;;11.00;2.20;;;;;;;;;;103480;1285;22468;-81
2023/01/06 04:31:37;;;;;;;10.90;2.40;;;;;;;;;;103508;1305;22526;-85
2023/01/06 04:34:04;;;;;;;10.00;2.00;;;;;;;;;;103781;1305;22451;-86
2023/01/06 04:36:30;;;;;;;8.70;2.60;;;;;;;;;;103378;1301;23635;-83
2023/01/06 04:38:57;;;;;;;7.80;2.00;;;;;;;;;;103556;1308;23128;-80
2023/01/06 04:41:24;;;;;;;9.00;1.30;;;;;;;;;;103331;1308;22463;-84
2023/01/06 04:43:50;;;;;;;4.90;1.10;;;;;;;;;;103417;1308;22469;-85
2023/01/06 04:46:17;;;;;;;9.40;1.40;;;;;;;;;;103734;1308;23870;-81
2023/01/06 04:55:47;;;;;;;4.90;1.10;;;;;;;;;;100403;1342;544827;-83
2023/01/06 04:58:14;;;;;;;7.90;0.90;;;;;;;;;;102550;1317;22685;-81
2023/01/06 05:00:41;;;;;;;5.50;1.10;;;;;;;;;;103131;1310;22461;-82
2023/01/06 05:03:07;;;;;;;6.20;1.10;;;;;;;;;;103094;1304;22578;-83
2023/01/06 05:05:34;;;;;;;5.20;1.30;;;;;;;;;;103036;1313;25223;-82
2023/01/06 05:08:00;;;;;;;6.00;1.80;;;;;;;;;;102993;1312;22473;-82
2023/01/06 05:10:27;;;;;;;7.30;2.00;;;;;;;;;;102056;1310;1635005;-84
2023/01/06 05:12:54;;;;;;;7.40;1.30;;;;;;;;;;103232;1297;22702;-83
2023/01/06 05:15:20;;;;;;;4.00;1.00;;;;;;;;;;103223;1310;22479;-81
2023/01/06 05:17:47;;;;;;;4.60;0.90;;;;;;;;;;103428;1310;25260;-89
2023/01/06 05:20:14;;;;;;;6.10;1.00;;;;;;;;;;103302;1310;24346;-83
2023/01/06 05:22:40;;;;;;;4.70;0.80;;;;;;;;;;103250;1309;25271;-81
2023/01/06 05:25:07;;;;;;;6.90;1.30;;;;;;;;;;103423;1310;23849;-81
2023/01/06 05:27:34;;;;;;;5.30;0.90;;;;;;;;;;102989;1310;23170;-81
2023/01/06 05:30:00;;;;;;;4.90;0.90;;;;;;;;;;103495;1305;22472;-79
2023/01/06 05:32:27;;;;;;;7.50;1.60;;;;;;;;;;103516;1306;23162;-82
2023/01/06 05:34:54;;;;;;;6.50;0.90;;;;;;;;;;103585;1304;24745;-81
2023/01/06 05:37:20;;;;;;;4.30;1.00;;;;;;;;;;103657;1297;23871;-82
2023/01/06 05:39:47;;;;;;;3.80;0.90;;;;;;;;;;103484;1298;22706;-81
2023/01/06 05:42:14;;;;;;;7.20;1.10;;;;;;;;;;103719;1304;25259;-81
2023/01/06 05:44:41;;;;;;;7.00;0.90;;;;;;;;;;103730;1299;24336;-82
2023/01/06 05:47:08;;;;;;;7.10;1.10;;;;;;;;;;103512;1306;22469;-85
2023/01/06 05:49:34;;;;;;;4.70;1.00;;;;;;;;;;103464;1307;23165;-81
2023/01/06 05:52:01;;;;;;;7.40;1.20;;;;;;;;;;103535;1281;24266;-83
2023/01/06 05:54:27;;;;;;;5.50;1.30;;;;;;;;;;103544;1301;22475;-80
2023/01/06 05:56:55;;;;;;;5.60;1.20;;;;;;;;;;103494;1304;25316;-81
2023/01/06 05:59:21;;;;;;;5.30;1.10;;;;;;;;;;107326;1296;22806;-77
2023/01/06 06:01:48;;;;;;;5.70;1.00;;;;;;;;;;107103;1297;22138;-77
2023/01/06 06:04:15;;;;;;;4.70;1.00;;;;;;;;;;107371;1291;22777;-77
2023/01/06 06:06:41;;;;;;;6.10;1.00;;;;;;;;;;106907;1307;22065;-77
2023/01/06 06:09:08;;;;;;;7.10;1.40;;;;;;;;;;107031;1306;22210;-77
2023/01/06 06:11:35;;;;;;;4.90;1.10;;;;;;;;;;107034;1305;21987;-77
2023/01/06 06:14:01;;;;;;;4.50;0.90;;;;;;;;;;106947;1306;22815;-77
2023/01/06 06:16:28;;;;;;;7.20;1.00;;;;;;;;;;106873;1304;21930;-79
2023/01/06 06:18:56;;;;;;;3.50;0.70;;;;;;;;;;107295;1297;22328;-79
2023/01/06 06:21:27;;;;;;;4.80;1.10;;;;;;;;;;107346;1294;21931;-77
2023/01/06 06:23:54;;;;;;;7.10;0.90;;;;;;;;;;107057;1304;22047;-77
2023/01/06 06:26:22;;;;;;;4.60;0.70;;;;;;;;;;107054;1298;27245;-78
2023/01/06 06:28:48;;;;;;;6.60;0.70;;;;;;;;;;106759;1307;22052;-83
2023/01/06 06:31:19;;;;;;;5.30;0.90;;;;;;;;;;107046;1306;22696;-77
2023/01/06 06:33:48;;;;;;;3.90;0.80;;;;;;;;;;106781;1307;22052;-77
2023/01/06 06:36:14;;;;;;;6.10;1.20;;;;;;;;;;106928;1305;22069;-77
2023/01/06 06:38:42;;;;;;;6.70;1.10;;;;;;;;;;107011;1304;22123;-77
2023/01/06 06:41:09;;;;;;;7.40;1.30;;;;;;;;;;106966;1304;22019;-77
2023/01/06 06:43:36;;;;;;;7.00;1.20;;;;;;;;;;107045;1304;22147;-77
2023/01/06 06:46:03;;;;;;;9.40;1.50;;;;;;;;;;107039;1304;21961;-77
2023/01/06 06:48:29;;;;;;;7.30;1.50;;;;;;;;;;106939;1306;21768;-78
2023/01/06 06:51:00;;;;;;;7.30;1.20;;;;;;;;;;107143;1290;22009;-78
2023/01/06 06:53:27;;;;;;;10.50;1.90;;;;;;;;;;106876;1299;22215;-77
2023/01/06 06:55:54;;;;;;;8.70;1.80;;;;;;;;;;107285;1291;22076;-77
2023/01/06 06:58:21;;;;;;;9.00;1.70;;;;;;;;;;107041;1304;22670;-77
2023/01/06 07:00:47;;;;;;;7.40;1.30;;;;;;;;;;107124;1298;22074;-78
2023/01/06 07:03:14;;;;;;;10.10;2.10;;;;;;;;;;107108;1304;22065;-77
2023/01/06 07:05:43;;;;;;;8.90;1.50;;;;;;;;;;107059;1304;22409;-77
2023/01/06 07:08:10;;;;;;;7.80;1.70;;;;;;;;;;106975;1299;22077;-78
2023/01/06 07:10:37;;;;;;;6.90;1.90;;;;;;;;;;106988;1306;22232;-79
2023/01/06 07:13:04;;;;;;;9.90;3.00;;;;;;;;;;106947;1304;22062;-80
2023/01/06 07:15:31;;;;;;;11.60;3.50;;;;;;;;;;106915;1299;22075;-78
2023/01/06 07:18:01;;;;;;;9.70;3.50;;;;;;;;;;107042;1304;22738;-78
2023/01/06 07:20:29;;;;;;;8.40;2.50;;;;;;;;;;107012;1304;22671;-78
2023/01/06 07:22:55;;;;;;;10.30;1.90;;;;;;;;;;107055;1304;22721;-78
2023/01/06 07:25:22;;;;;;;8.00;2.00;;;;;;;;;;107121;1304;22867;-78
2023/01/06 07:27:56;;;;;;;7.90;2.00;;;;;;;;;;106982;1307;22652;-78
2023/01/06 07:30:24;;;;;;;8.10;1.90;;;;;;;;;;106918;1302;22068;-77
2023/01/06 07:32:51;;;;;;;7.30;1.80;;;;;;;;;;106926;1306;22091;-78
2023/01/06 07:35:17;;;;;;;11.30;2.40;;;;;;;;;;107042;1305;22045;-78
2023/01/06 07:37:44;;;;;;;9.00;2.40;;;;;;;;;;106938;1292;22383;-77
2023/01/06 07:40:11;;;;;;;9.70;2.70;;;;;;;;;;107049;1302;22108;-78
2023/01/06 07:42:37;;;;;;;9.70;2.10;;;;;;;;;;107322;1288;22088;-78
2023/01/06 07:45:06;;;;;;;10.90;2.80;;;;;;;;;;107120;1303;22135;-77
2023/01/06 07:47:33;;;;;;;10.20;3.00;;;;;;;;;;107295;1297;22014;-77
2023/01/06 07:49:59;;;;;;;9.50;3.20;;;;;;;;;;106935;1304;22051;-78
2023/01/06 07:52:26;;;;;;;11.10;2.80;;;;;;;;;;107298;1291;22046;-78
2023/01/06 07:54:55;;;;;;;10.70;2.60;;;;;;;;;;106853;1307;22089;-78
2023/01/06 07:57:22;;;;;;;12.00;3.30;;;;;;;;;;107166;1297;22050;-78
2023/01/06 07:59:48;;;;;;;17.80;3.50;;;;;;;;;;107010;1304;22073;-78
2023/01/06 08:02:15;;;;;;;11.10;3.20;;;;;;;;;;107310;1296;22007;-80
2023/01/06 08:04:42;;;;;;;10.90;2.90;;;;;;;;;;107042;1305;22726;-79
2023/01/06 08:07:09;;;;;;;10.10;3.30;;;;;;;;;;106999;1305;22803;-79
2023/01/06 08:09:36;;;;;;;11.80;3.50;;;;;;;;;;107270;1292;22062;-78
2023/01/06 08:12:02;;;;;;;8.90;3.00;;;;;;;;;;106999;1306;22073;-78
2023/01/06 08:14:29;;;;;;;10.60;3.00;;;;;;;;;;107280;1298;22040;-78
2023/01/06 08:16:56;;;;;;;9.90;3.80;;;;;;;;;;107127;1292;21950;-78
2023/01/06 08:19:25;;;;;;;16.70;4.90;;;;;;;;;;106967;1307;22060;-78
2023/01/06 08:21:52;;;;;;;14.60;4.80;;;;;;;;;;106983;1289;22791;-79
2023/01/06 08:24:19;;;;;;;12.50;4.70;;;;;;;;;;107042;1302;22089;-78
2023/01/06 08:26:45;;;;;;;14.50;5.90;;;;;;;;;;107326;1291;22055;-79
2023/01/06 08:29:12;;;;;;;14.10;5.60;;;;;;;;;;106913;1305;22057;-78
2023/01/06 08:31:39;;;;;;;15.60;5.50;;;;;;;;;;107106;1291;22609;-76
2023/01/06 08:34:06;;;;;;;12.00;4.90;;;;;;;;;;107285;1298;22042;-77
2023/01/06 08:36:32;;;;;;;15.10;6.30;;;;;;;;;;107263;1289;22141;-76
2023/01/06 08:38:59;;;;;;;14.20;4.40;;;;;;;;;;107296;1297;22102;-77
2023/01/06 08:41:26;;;;;;;13.60;4.90;;;;;;;;;;106985;1306;23102;-76
2023/01/06 08:43:53;;;;;;;13.80;5.20;;;;;;;;;;107068;1299;22082;-76
2023/01/06 08:46:20;;;;;;;15.70;5.30;;;;;;;;;;107309;1291;22089;-75
2023/01/06 08:48:48;;;;;;;12.70;5.20;;;;;;;;;;107056;1306;22120;-76
2023/01/06 08:51:16;;;;;;;14.60;5.70;;;;;;;;;;106930;1299;21734;-76
2023/01/06 08:53:44;;;;;;;17.60;6.80;;;;;;;;;;107128;1299;22089;-77
2023/01/06 08:56:16;;;;;;;17.80;6.00;;;;;;;;;;107156;1286;22741;-77
2023/01/06 08:58:42;;;;;;;12.80;4.10;;;;;;;;;;106948;1307;22201;-80
2023/01/06 09:01:16;;;;;;;15.10;4.10;;;;;;;;;;107036;1306;22796;-78
2023/01/06 09:03:44;;;;;;;14.30;4.90;;;;;;;;;;107072;1300;22031;-77
2023/01/06 09:06:11;;;;;;;11.30;4.30;;;;;;;;;;106925;1304;22738;-77
2023/01/06 09:08:38;;;;;;;13.80;4.10;;;;;;;;;;106956;1307;22090;-77
2023/01/06 09:11:06;;;;;;;13.40;4.70;;;;;;;;;;106935;1299;22092;-77
2023/01/06 09:13:33;;;;;;;14.60;5.50;;;;;;;;;;106745;1301;22125;-77
2023/01/06 09:16:03;;;;;;;11.60;4.80;;;;;;;;;;106862;1307;22096;-76
2023/01/06 09:18:31;;;;;;;11.20;4.10;;;;;;;;;;107098;1300;22099;-75
2023/01/06 09:20:57;;;;;;;12.00;4.50;;;;;;;;;;106795;1307;22065;-76
2023/01/06 09:23:24;;;;;;;12.20;4.60;;;;;;;;;;107040;1307;22350;-76
2023/01/06 09:25:50;;;;;;;13.30;4.80;;;;;;;;;;107057;1305;22831;-77
2023/01/06 09:28:17;;;;;;;11.90;5.00;;;;;;;;;;106899;1307;22674;-77
2023/01/06 09:30:45;;;;;;;13.50;5.10;;;;;;;;;;106977;1306;21986;-77
2023/01/06 09:33:12;;;;;;;12.70;5.10;;;;;;;;;;106860;1307;22088;-76
2023/01/06 09:35:39;;;;;;;16.70;6.10;;;;;;;;;;106949;1306;22044;-76
2023/01/06 09:38:05;;;;;;;15.10;6.20;;;;;;;;;;107118;1300;21949;-77
2023/01/06 09:40:38;;;;;;;17.00;6.60;;;;;;;;;;106940;1305;22086;-78
2023/01/06 09:43:11;;;;;;;13.80;5.70;;;;;;;;;;107032;1307;22068;-77
2023/01/06 09:45:45;;;;;;;14.40;5.90;;;;;;;;;;106943;1299;22068;-77
2023/01/06 09:48:17;;;;;;;15.30;5.20;;;;;;;;;;106979;1307;22051;-77
2023/01/06 09:50:45;;;;;;;20.30;6.30;;;;;;;;;;107005;1306;22090;-77
2023/01/06 09:53:18;;;;;;;15.20;6.10;;;;;;;;;;106718;1307;22087;-77
2023/01/06 09:55:56;;;;;;;16.20;6.40;;;;;;;;;;106701;1307;22066;-78
2023/01/06 09:58:26;;;;;;;16.40;6.30;;;;;;;;;;106874;1307;22127;-76
2023/01/06 10:00:54;;;;;;;17.50;6.80;;;;;;;;;;106867;1306;22833;-76
2023/01/06 10:03:23;;;;;;;17.30;6.20;;;;;;;;;;106730;1306;22755;-77
2023/01/06 10:06:00;;;;;;;18.40;7.00;;;;;;;;;;106790;1307;22073;-76
2023/01/06 10:08:39;;;;;;;20.20;7.50;;;;;;;;;;106895;1307;22060;-77
2023/01/06 10:11:18;;;;;;;18.30;8.00;;;;;;;;;;106745;1294;22096;-77
2023/01/06 10:13:55;;;;;;;17.90;7.90;;;;;;;;;;106758;1307;22125;-76
2023/01/06 10:16:32;;;;;;;20.70;8.40;;;;;;;;;;107073;1298;22097;-76
2023/01/06 10:19:24;;;;;;;18.10;9.00;;;;;;;;;;106732;1307;22769;-76
2023/01/06 10:22:18;;;;;;;19.90;8.70;;;;;;;;;;106821;1307;21932;-76
2023/01/06 10:24:56;;;;;;;18.40;8.90;;;;;;;;;;106705;1301;22088;-77
2023/01/06 10:27:30;;;;;;;18.70;10.40;;;;;;;;;;106764;1307;21971;-76
2023/01/06 10:29:58;;;;;;;19.60;9.80;;;;;;;;;;106691;1302;22578;-77
2023/01/06 10:32:27;;;;;;;22.10;8.60;;;;;;;;;;106739;1310;22067;-77
2023/01/06 10:34:55;;;;;;;22.80;9.10;;;;;;;;;;106749;1310;22804;-77
2023/01/06 10:37:25;;;;;;;22.20;8.70;;;;;;;;;;106930;1297;22695;-78
2023/01/06 10:39:59;;;;;;;20.60;9.00;;;;;;;;;;106704;1307;22059;-77
2023/01/06 10:45:17;;;;;;;20.50;8.00;;;;;;;;;;106689;1309;22071;-77
2023/01/06 10:47:44;;;;;;;15.70;5.90;;;;;;;;;;106761;1301;21985;-78
2023/01/06 10:50:14;;;;;;;13.40;4.80;;;;;;;;;;106891;1299;22054;-77
2023/01/06 10:52:42;;;;;;;11.90;4.60;;;;;;;;;;106699;1307;21926;-77
2023/01/06 10:55:17;;;;;;;11.50;4.80;;;;;;;;;;106712;1307;22767;-77
2023/01/06 10:57:44;;;;;;;18.20;6.30;;;;;;;;;;106891;1301;22067;-77
2023/01/06 11:00:11;;;;;;;20.50;7.80;;;;;;;;;;107166;1282;22092;-78
2023/01/06 11:02:42;;;;;;;18.70;7.60;;;;;;;;;;107186;1290;22856;-77
2023/01/06 11:05:12;;;;;;;19.50;9.30;;;;;;;;;;107121;1295;22029;-79
2023/01/06 11:07:48;;;;;;;17.20;8.00;;;;;;;;;;106905;1307;22100;-77
2023/01/06 11:10:37;;;;;;;17.80;7.00;;;;;;;;;;106897;1307;22118;-78
2023/01/06 11:13:05;;;;;;;16.00;6.60;;;;;;;;;;107195;1300;22017;-77
2023/01/06 11:15:35;;;;;;;15.40;5.80;;;;;;;;;;106922;1306;22084;-77
2023/01/06 11:18:03;;;;;;;13.70;5.60;;;;;;;;;;106946;1299;22080;-77
2023/01/06 11:20:34;;;;;;;12.40;4.80;;;;;;;;;;106912;1307;22064;-78
2023/01/06 11:23:21;;;;;;;12.50;4.60;;;;;;;;;;106781;1307;22752;-78
2023/01/06 11:26:01;;;;;;;16.00;5.30;;;;;;;;;;106918;1307;22039;-77
2023/01/06 11:28:29;;;;;;;14.20;5.40;;;;;;;;;;106915;1300;22049;-78
2023/01/06 11:31:14;;;;;;;17.60;5.60;;;;;;;;;;106785;1307;22077;-77
2023/01/06 11:33:46;;;;;;;14.70;6.00;;;;;;;;;;106863;1307;22136;-78
2023/01/06 11:36:14;;;;;;;17.00;6.10;;;;;;;;;;106736;1307;22081;-78
2023/01/06 11:38:43;;;;;;;14.40;5.70;;;;;;;;;;106695;1294;22680;-76
2023/01/06 11:41:11;;;;;;;11.20;4.20;;;;;;;;;;106862;1307;22046;-77
2023/01/06 11:43:42;;;;;;;13.00;5.10;;;;;;;;;;106855;1307;21955;-76
2023/01/06 11:46:12;;;;;;;13.80;5.30;;;;;;;;;;107152;1300;22041;-77
2023/01/06 11:48:43;;;;;;;16.00;5.60;;;;;;;;;;106940;1305;22063;-76
2023/01/06 11:51:10;;;;;;;12.50;4.70;;;;;;;;;;106940;1307;22121;-76
2023/01/06 11:53:38;;;;;;;11.50;4.40;;;;;;;;;;106857;1307;22817;-76
2023/01/06 11:56:17;;;;;;;18.70;6.90;;;;;;;;;;106845;1305;22124;-76
2023/01/06 11:58:53;;;;;;;14.20;4.80;;;;;;;;;;106868;1307;22164;-77
2023/01/06 12:01:32;;;;;;;11.70;4.10;;;;;;;;;;106826;1307;22069;-77
2023/01/06 12:04:14;;;;;;;11.10;4.50;;;;;;;;;;106830;1302;22149;-77
2023/01/06 12:06:44;;;;;;;11.70;4.80;;;;;;;;;;106898;1306;22119;-77
2023/01/06 12:09:28;;;;;;;10.40;4.20;;;;;;;;;;106902;1304;22643;-77
2023/01/06 12:11:58;;;;;;;8.20;3.20;;;;;;;;;;106728;1295;22034;-77
2023/01/06 12:14:34;;;;;;;9.30;3.10;;;;;;;;;;106833;1307;22093;-77
2023/01/06 12:17:09;;;;;;;8.60;3.40;;;;;;;;;;106812;1307;22664;-78
2023/01/06 12:19:51;;;;;;;8.40;3.20;;;;;;;;;;106762;1307;22067;-77
2023/01/06 12:22:36;;;;;;;8.80;3.10;;;;;;;;;;106794;1307;22041;-79
2023/01/06 12:25:09;;;;;;;10.20;3.80;;;;;;;;;;106847;1307;22141;-77
2023/01/06 12:27:45;;;;;;;11.20;3.20;;;;;;;;;;106879;1307;22030;-78
2023/01/06 12:30:34;;;;;;;8.30;3.10;;;;;;;;;;106744;1307;22051;-77
2023/01/06 12:33:11;;;;;;;8.30;3.70;;;;;;;;;;106928;1306;22552;-77
2023/01/06 12:35:41;;;;;;;8.90;3.10;;;;;;;;;;106871;1307;22098;-77
2023/01/06 12:38:30;;;;;;;8.70;2.90;;;;;;;;;;106678;1307;21988;-77
2023/01/06 12:41:05;;;;;;;7.10;2.40;;;;;;;;;;106820;1307;22453;-77
2023/01/06 12:43:35;;;;;;;9.60;3.10;;;;;;;;;;106899;1307;22882;-77
2023/01/06 12:46:10;;;;;;;8.70;3.20;;;;;;;;;;106881;1301;22043;-76
2023/01/06 12:49:04;;;;;;;10.60;3.90;;;;;;;;;;106730;1307;22089;-77
2023/01/06 12:51:39;;;;;;;7.90;2.90;;;;;;;;;;106753;1302;22112;-77
2023/01/06 12:54:16;;;;;;;9.10;3.60;;;;;;;;;;106886;1307;22094;-77
2023/01/06 12:56:58;;;;;;;12.80;4.70;;;;;;;;;;106728;1306;22063;-77
2023/01/06 12:59:44;;;;;;;14.70;5.00;;;;;;;;;;106955;1300;22323;-77
2023/01/06 13:02:32;;;;;;;14.50;4.80;;;;;;;;;;106892;1307;22717;-77
2023/01/06 13:10:13;;;;;;;11.20;3.80;;;;;;;;;;100378;1336;544969;-84
2023/01/06 13:12:55;;;;;;;9.80;3.40;;;;;;;;;;102598;1311;22477;-83
2023/01/06 13:15:25;;;;;;;15.40;6.50;;;;;;;;;;102716;1315;25294;-81
2023/01/06 13:17:55;;;;;;;12.40;4.50;;;;;;;;;;102834;1317;22485;-81
2023/01/06 13:20:27;;;;;;;12.30;4.80;;;;;;;;;;102611;1317;25603;-82
2023/01/06 13:22:54;;;;;;;15.00;6.40;;;;;;;;;;101516;1317;1602741;-81
2023/01/06 13:25:37;;;;;;;16.50;7.40;;;;;;;;;;102764;1317;22478;-81
2023/01/06 13:28:04;;;;;;;14.20;5.40;;;;;;;;;;102755;1316;25302;-76
2023/01/06 13:30:40;;;;;;;14.40;5.80;;;;;;;;;;102970;1316;26589;-78
2023/01/06 13:33:17;;;;;;;12.90;5.20;;;;;;;;;;102801;1314;25298;-79
2023/01/06 13:35:51;;;;;;;16.20;6.90;;;;;;;;;;102692;1313;24442;-83
2023/01/06 13:38:36;;;;;;;14.10;5.40;;;;;;;;;;102843;1316;25335;-77
2023/01/06 13:41:04;;;;;;;13.80;5.10;;;;;;;;;;102831;1316;25274;-76
2023/01/06 13:43:32;;;;;;;14.00;5.20;;;;;;;;;;102861;1312;23206;-79
2023/01/06 13:46:02;;;;;;;14.50;5.00;;;;;;;;;;102820;1313;22475;-84
2023/01/06 13:48:31;;;;;;;18.40;6.30;;;;;;;;;;102924;1316;25392;-77
2023/01/06 13:51:01;;;;;;;18.20;6.00;;;;;;;;;;102775;1313;25619;-78
2023/01/06 13:53:34;;;;;;;14.70;5.50;;;;;;;;;;102860;1317;22519;-82
2023/01/06 13:56:21;;;;;;;13.90;5.50;;;;;;;;;;102786;1313;25375;-81
2023/01/06 13:58:49;;;;;;;12.50;5.10;;;;;;;;;;103822;1304;25513;-79
2023/01/06 14:01:16;;;;;;;15.90;6.50;;;;;;;;;;103835;1301;22461;-78
2023/01/06 14:03:46;;;;;;;12.50;5.30;;;;;;;;;;107120;1304;22038;-77
2023/01/06 14:06:22;;;;;;;13.20;5.40;;;;;;;;;;106900;1307;22000;-77
2023/01/06 14:08:53;;;;;;;11.90;4.90;;;;;;;;;;106978;1305;22682;-77
2023/01/06 14:11:23;;;;;;;12.50;4.90;;;;;;;;;;107032;1305;22052;-78
2023/01/06 14:13:57;;;;;;;13.60;5.20;;;;;;;;;;106988;1304;22695;-78
2023/01/06 14:16:40;;;;;;;12.50;4.30;;;;;;;;;;107097;1306;22055;-77
2023/01/06 14:19:13;;;;;;;10.60;4.40;;;;;;;;;;107104;1309;22107;-77
2023/01/06 14:21:40;;;;;;;17.30;7.00;;;;;;;;;;107261;1285;22686;-78
2023/01/06 14:24:16;;;;;;;13.80;5.40;;;;;;;;;;106868;1312;22068;-78
2023/01/06 14:26:43;;;;;;;20.50;7.30;;;;;;;;;;106970;1305;22673;-78
2023/01/06 14:29:28;;;;;;;20.60;7.60;;;;;;;;;;106930;1302;22104;-78
2023/01/06 14:31:55;;;;;;;19.50;7.90;;;;;;;;;;107024;1305;22917;-77
2023/01/06 14:34:22;;;;;;;22.00;8.00;;;;;;;;;;106969;1302;21938;-77
2023/01/06 14:36:49;;;;;;;20.70;7.40;;;;;;;;;;106891;1307;22754;-79
2023/01/06 14:39:19;;;;;;;20.60;8.40;;;;;;;;;;106982;1306;22108;-77
2023/01/06 14:41:58;;;;;;;24.60;10.10;;;;;;;;;;107014;1299;22021;-78
2023/01/06 14:44:51;;;;;;;31.80;13.20;;;;;;;;;;106898;1307;22187;-78
2023/01/06 14:47:32;;;;;;;34.80;13.50;;;;;;;;;;106934;1307;22757;-79
2023/01/06 14:50:04;;;;;;;25.60;10.50;;;;;;;;;;107121;1299;22175;-78
2023/01/06 14:52:33;;;;;;;16.90;6.60;;;;;;;;;;107036;1295;22018;-77
2023/01/06 14:55:00;;;;;;;15.50;5.60;;;;;;;;;;106956;1307;22787;-78
2023/01/06 14:57:34;;;;;;;13.10;5.10;;;;;;;;;;107339;1297;22105;-77
2023/01/06 15:00:06;;;;;;;13.20;5.30;;;;;;;;;;106955;1307;22191;-77